Time;durP1;ratioP1;P1;durP2;ratioP2;P2;SDS_P1;SDS_P2;PMS_P1;PMS_P2;Temp;Humidity;BMP_temperature;BMP_pressure;BME280_temperature;BME280_humidity;BME280_pressure;Samples;Min_cycle;Max_cycle;Signal;HPM_P1;HPM_P2
2023/04/30 00:01:44;;;;;;;2.63;1.80;;;12.30;90.30;;;;;;5051443;28;20021;-83
2023/04/30 00:04:10;;;;;;;3.13;1.60;;;12.20;90.30;;;;;;5051125;28;20429;-82
2023/04/30 00:06:36;;;;;;;3.30;2.03;;;12.20;90.40;;;;;;5059003;28;20051;-83
2023/04/30 00:09:02;;;;;;;2.67;1.83;;;12.20;90.40;;;;;;5060610;28;20390;-83
2023/04/30 00:11:27;;;;;;;2.97;1.80;;;12.10;90.30;;;;;;5025141;28;20037;-84
2023/04/30 00:13:55;;;;;;;2.70;1.87;;;12.10;90.40;;;;;;5059402;28;20612;-83
2023/04/30 00:16:21;;;;;;;2.95;1.80;;;12.10;90.40;;;;;;5052356;28;20107;-83
2023/04/30 00:18:47;;;;;;;4.40;1.80;;;12.00;90.40;;;;;;5034713;28;20456;-83
2023/04/30 00:21:12;;;;;;;2.40;1.60;;;12.00;90.40;;;;;;5052855;28;20025;-83
2023/04/30 00:23:38;;;;;;;2.67;1.55;;;11.90;90.80;;;;;;5056176;28;20031;-83
2023/04/30 00:26:04;;;;;;;2.50;1.60;;;11.90;90.50;;;;;;5024319;28;20028;-83
2023/04/30 00:28:30;;;;;;;3.70;1.80;;;11.80;90.50;;;;;;5041871;28;20099;-83
2023/04/30 00:30:55;;;;;;;2.20;1.60;;;11.80;90.50;;;;;;5047779;28;20072;-82
2023/04/30 00:33:21;;;;;;;2.47;1.65;;;11.70;90.50;;;;;;5062182;28;20043;-82
2023/04/30 00:35:47;;;;;;;2.57;1.70;;;11.70;90.60;;;;;;5030087;28;20445;-83
2023/04/30 00:38:13;;;;;;;3.00;1.80;;;11.60;90.60;;;;;;5043734;28;20086;-82
2023/04/30 00:40:43;;;;;;;3.13;1.75;;;11.60;90.60;;;;;;5058511;28;20027;-84
2023/04/30 00:43:09;;;;;;;3.40;1.80;;;11.60;90.60;;;;;;5039430;28;20028;-82
2023/04/30 00:45:34;;;;;;;3.00;1.33;;;11.50;90.70;;;;;;5068811;28;20017;-84
2023/04/30 00:48:01;;;;;;;2.60;1.65;;;11.50;90.70;;;;;;5053336;28;20327;-83
2023/04/30 00:50:28;;;;;;;2.78;1.50;;;11.50;90.80;;;;;;5054065;28;20224;-83
2023/04/30 00:52:54;;;;;;;2.93;1.60;;;11.40;90.80;;;;;;5031002;28;20086;-82
2023/04/30 00:55:20;;;;;;;3.40;2.00;;;11.40;90.80;;;;;;5044578;28;20056;-82
2023/04/30 00:57:46;;;;;;;2.60;1.70;;;11.30;90.80;;;;;;5038671;28;20292;-83
2023/04/30 01:00:12;;;;;;;2.80;1.70;;;11.30;90.80;;;;;;5043275;28;20444;-82
2023/04/30 01:02:39;;;;;;;3.45;1.70;;;11.20;90.80;;;;;;5033987;28;20032;-84
2023/04/30 01:05:06;;;;;;;4.57;1.77;;;11.20;90.80;;;;;;5060863;28;20103;-82
2023/04/30 01:07:33;;;;;;;2.60;1.73;;;11.20;90.80;;;;;;5056253;28;20580;-84
2023/04/30 01:09:59;;;;;;;2.95;1.67;;;11.10;90.80;;;;;;5044632;28;20109;-83
2023/04/30 01:12:36;;;;;;;3.10;1.70;;;11.10;90.80;;;;;;5038210;28;20610;-83
2023/04/30 01:15:11;;;;;;;2.38;1.60;;;11.10;90.90;;;;;;5053231;28;20389;-83
2023/04/30 01:17:45;;;;;;;2.70;1.73;;;11.10;90.90;;;;;;5051404;28;20493;-84
2023/04/30 01:20:12;;;;;;;2.65;1.50;;;11.00;90.90;;;;;;5060394;28;20456;-82
2023/04/30 01:23:02;;;;;;;2.40;1.48;;;11.00;90.90;;;;;;5050668;28;20024;-84
2023/04/30 01:25:48;;;;;;;2.45;1.70;;;10.90;90.90;;;;;;5055699;28;20401;-84
2023/04/30 01:28:15;;;;;;;2.17;1.55;;;10.90;91.00;;;;;;5038156;28;20292;-82
2023/04/30 01:30:43;;;;;;;2.50;1.60;;;10.90;91.00;;;;;;5053822;28;20429;-83
2023/04/30 01:33:10;;;;;;;2.50;1.52;;;10.80;91.00;;;;;;5046523;28;20387;-83
2023/04/30 01:35:57;;;;;;;2.80;1.73;;;10.80;91.00;;;;;;5065045;28;20657;-82
2023/04/30 01:38:55;;;;;;;2.55;1.70;;;10.70;91.00;;;;;;5032988;28;20144;-82
2023/04/30 01:41:28;;;;;;;3.13;1.50;;;10.70;91.00;;;;;;5058170;28;20631;-82
2023/04/30 01:44:53;;;;;;;2.43;1.50;;;10.70;91.00;;;;;;5047466;28;20036;-84
2023/04/30 01:48:00;;;;;;;2.60;1.60;;;10.60;91.00;;;;;;5052392;28;20344;-83
2023/04/30 01:50:49;;;;;;;2.47;1.40;;;10.60;91.00;;;;;;5038468;28;20033;-82
2023/04/30 01:53:23;;;;;;;2.97;1.90;;;10.60;91.10;;;;;;5055863;28;20164;-82
2023/04/30 01:55:56;;;;;;;2.75;1.63;;;10.50;91.10;;;;;;5046254;28;20021;-84
2023/04/30 01:58:23;;;;;;;3.77;1.97;;;10.50;91.10;;;;;;5059090;28;20489;-83
2023/04/30 02:00:49;;;;;;;3.35;1.90;;;10.40;91.10;;;;;;5039615;28;20023;-83
2023/04/30 02:03:15;;;;;;;2.80;1.65;;;10.40;91.10;;;;;;5054137;28;20246;-83
2023/04/30 02:05:41;;;;;;;3.10;1.80;;;10.40;91.20;;;;;;5051862;28;20352;-82
2023/04/30 02:08:07;;;;;;;3.03;1.70;;;10.40;91.20;;;;;;5054967;28;20051;-83
2023/04/30 02:10:32;;;;;;;3.97;2.20;;;10.40;91.20;;;;;;5028461;28;20037;-82
2023/04/30 02:12:58;;;;;;;3.80;2.20;;;10.30;91.20;;;;;;5056749;28;20029;-84
2023/04/30 02:15:24;;;;;;;3.60;2.07;;;10.30;91.30;;;;;;5038436;28;20028;-82
2023/04/30 02:17:50;;;;;;;2.63;1.80;;;10.30;91.30;;;;;;5057487;28;20028;-84
2023/04/30 02:20:16;;;;;;;3.23;1.80;;;10.30;91.30;;;;;;5028932;28;20503;-83
2023/04/30 02:22:42;;;;;;;3.70;1.90;;;10.20;91.30;;;;;;5057306;28;20118;-83
2023/04/30 02:25:08;;;;;;;2.85;1.70;;;10.20;91.30;;;;;;5026828;28;20734;-83
2023/04/30 02:27:34;;;;;;;2.90;1.80;;;10.20;91.30;;;;;;5060454;28;20024;-82
2023/04/30 02:30:00;;;;;;;3.00;1.70;;;10.10;91.30;;;;;;5054538;28;20768;-83
2023/04/30 02:32:26;;;;;;;2.65;1.70;;;10.10;91.30;;;;;;5022207;28;20032;-82
2023/04/30 02:34:52;;;;;;;3.38;1.70;;;10.10;91.30;;;;;;5053613;28;20024;-84
2023/04/30 02:37:17;;;;;;;3.60;1.70;;;10.00;91.30;;;;;;5047943;28;20016;-82
2023/04/30 02:39:43;;;;;;;3.15;1.70;;;9.90;91.30;;;;;;5055571;28;20031;-82
2023/04/30 02:42:10;;;;;;;2.90;1.70;;;9.90;91.30;;;;;;5042348;28;20075;-82
2023/04/30 02:44:35;;;;;;;2.55;1.60;;;9.90;91.30;;;;;;5061247;28;20032;-82
2023/04/30 02:47:01;;;;;;;2.80;1.70;;;9.90;91.30;;;;;;5036982;28;20025;-84
2023/04/30 02:49:27;;;;;;;6.00;1.80;;;9.80;91.30;;;;;;5056104;28;20020;-83
2023/04/30 02:51:54;;;;;;;3.70;1.90;;;9.80;91.30;;;;;;5048007;28;20031;-84
2023/04/30 02:54:20;;;;;;;2.50;1.60;;;9.70;91.30;;;;;;5055244;28;20017;-83
2023/04/30 02:56:46;;;;;;;3.97;1.87;;;9.70;91.40;;;;;;5042550;28;20032;-84
2023/04/30 02:59:12;;;;;;;3.15;1.75;;;9.70;91.40;;;;;;5053472;28;20203;-82
2023/04/30 03:01:38;;;;;;;3.70;1.77;;;9.60;91.40;;;;;;5026480;28;20896;-84
2023/04/30 03:04:04;;;;;;;2.85;1.70;;;9.50;91.40;;;;;;5061612;28;20025;-82
2023/04/30 03:06:31;;;;;;;2.97;1.73;;;9.50;91.50;;;;;;5041032;28;20082;-83
2023/04/30 03:08:57;;;;;;;3.22;1.90;;;9.50;91.50;;;;;;5042006;28;20016;-82
2023/04/30 03:11:23;;;;;;;3.20;1.80;;;9.40;91.50;;;;;;5048192;28;20039;-84
2023/04/30 03:13:50;;;;;;;3.17;1.70;;;9.40;91.60;;;;;;5051203;28;20674;-83
2023/04/30 03:16:17;;;;;;;3.47;1.90;;;9.40;91.60;;;;;;5054084;28;20069;-84
2023/04/30 03:18:43;;;;;;;3.10;1.83;;;9.30;91.80;;;;;;5037291;28;20069;-82
2023/04/30 03:21:08;;;;;;;2.97;1.65;;;9.30;91.60;;;;;;5034623;28;20645;-82
2023/04/30 03:23:34;;;;;;;4.18;1.90;;;9.20;91.60;;;;;;5029189;28;20210;-82
2023/04/30 03:26:01;;;;;;;3.50;2.00;;;9.20;91.70;;;;;;5058341;28;20135;-82
2023/04/30 03:28:26;;;;;;;3.25;1.92;;;9.20;91.70;;;;;;5042896;28;20415;-83
2023/04/30 03:30:52;;;;;;;3.50;2.10;;;9.20;91.80;;;;;;5056795;28;20044;-82
2023/04/30 03:33:18;;;;;;;4.15;2.08;;;9.20;91.80;;;;;;5038392;28;20037;-84
2023/04/30 03:35:44;;;;;;;4.10;2.07;;;9.20;91.80;;;;;;5056617;28;20275;-82
2023/04/30 03:38:10;;;;;;;3.42;1.90;;;9.10;91.70;;;;;;5045276;28;20028;-83
2023/04/30 03:40:35;;;;;;;3.25;1.73;;;9.10;91.80;;;;;;5052267;28;20033;-83
2023/04/30 03:43:02;;;;;;;3.22;1.90;;;9.10;91.80;;;;;;5047996;28;20024;-82
2023/04/30 03:45:27;;;;;;;3.80;1.90;;;9.00;91.70;;;;;;5054655;28;20123;-83
2023/04/30 03:47:53;;;;;;;3.80;2.00;;;9.00;91.80;;;;;;5035936;28;20490;-83
2023/04/30 03:50:19;;;;;;;4.77;2.10;;;9.00;91.80;;;;;;5058553;28;20032;-83
2023/04/30 03:52:45;;;;;;;4.07;2.03;;;8.90;91.80;;;;;;5030303;28;20634;-81
2023/04/30 03:55:11;;;;;;;4.23;2.00;;;8.90;91.80;;;;;;5064483;28;20446;-82
2023/04/30 03:57:39;;;;;;;3.10;1.90;;;8.90;91.80;;;;;;5045214;28;20319;-82
2023/04/30 04:00:09;;;;;;;3.47;1.95;;;8.80;91.90;;;;;;5056559;28;20048;-83
2023/04/30 04:02:35;;;;;;;3.15;2.00;;;8.80;91.90;;;;;;5044353;28;20080;-83
2023/04/30 04:05:01;;;;;;;5.03;2.10;;;8.80;91.90;;;;;;5024091;28;20449;-82
2023/04/30 04:07:27;;;;;;;3.57;1.90;;;8.80;91.90;;;;;;5046158;28;20377;-83
2023/04/30 04:09:53;;;;;;;4.00;2.40;;;8.70;91.90;;;;;;5038975;28;20086;-83
2023/04/30 04:12:19;;;;;;;4.13;2.25;;;8.80;92.00;;;;;;5027488;28;20024;-83
2023/04/30 04:14:45;;;;;;;5.23;2.60;;;8.80;92.10;;;;;;5054018;28;20028;-83
2023/04/30 04:17:10;;;;;;;5.15;2.65;;;8.70;92.30;;;;;;5057311;28;20029;-82
2023/04/30 04:19:36;;;;;;;5.37;2.60;;;8.70;92.40;;;;;;5033093;28;20125;-82
2023/04/30 04:22:02;;;;;;;4.60;2.55;;;8.80;92.50;;;;;;5058020;28;20040;-83
2023/04/30 04:24:28;;;;;;;4.37;2.60;;;8.80;92.60;;;;;;5043486;28;20286;-84
2023/04/30 04:26:54;;;;;;;4.70;2.60;;;8.80;92.60;;;;;;5066072;28;20039;-83
2023/04/30 04:29:20;;;;;;;5.28;2.33;;;8.80;92.60;;;;;;5028135;28;20033;-83
2023/04/30 04:31:48;;;;;;;5.60;2.70;;;8.80;92.70;;;;;;5057568;28;20048;-82
2023/04/30 04:34:13;;;;;;;4.18;2.30;;;8.80;92.70;;;;;;5056752;28;20130;-83
2023/04/30 04:36:40;;;;;;;4.60;2.42;;;8.80;92.70;;;;;;5032872;28;20035;-82
2023/04/30 04:39:06;;;;;;;4.93;2.67;;;8.80;92.80;;;;;;5060664;28;20021;-82
2023/04/30 04:41:32;;;;;;;5.00;2.83;;;8.90;92.80;;;;;;5046478;28;20585;-82
2023/04/30 04:44:00;;;;;;;4.70;2.60;;;8.90;92.90;;;;;;5028987;28;20032;-83
2023/04/30 04:46:27;;;;;;;6.10;3.13;;;8.80;92.90;;;;;;5053029;28;20028;-83
2023/04/30 04:48:53;;;;;;;4.85;2.60;;;8.80;92.90;;;;;;5044444;28;20127;-82
2023/04/30 04:51:19;;;;;;;4.72;2.47;;;8.90;92.90;;;;;;5021431;28;20420;-82
2023/04/30 04:53:45;;;;;;;5.40;2.70;;;8.90;92.90;;;;;;5040478;28;20422;-84
2023/04/30 04:56:11;;;;;;;5.43;2.72;;;8.90;93.00;;;;;;5035321;28;20501;-83
2023/04/30 04:58:37;;;;;;;5.10;2.78;;;8.90;93.00;;;;;;5050561;28;20473;-84
2023/04/30 05:01:04;;;;;;;4.63;2.58;;;8.90;93.00;;;;;;5041154;28;20021;-82
2023/04/30 05:03:31;;;;;;;5.05;2.60;;;8.90;93.00;;;;;;5044675;28;20115;-83
2023/04/30 05:05:58;;;;;;;4.50;2.60;;;8.90;93.00;;;;;;5058719;28;20036;-83
2023/04/30 05:08:23;;;;;;;4.40;2.50;;;9.00;93.10;;;;;;5037713;28;20032;-83
2023/04/30 05:10:49;;;;;;;4.25;2.20;;;9.00;93.10;;;;;;5051591;28;20530;-82
2023/04/30 05:13:15;;;;;;;3.70;2.43;;;9.00;93.50;;;;;;5063465;28;20032;-82
2023/04/30 05:15:41;;;;;;;4.80;2.80;;;9.00;93.20;;;;;;5045642;28;20051;-82
2023/04/30 05:18:07;;;;;;;4.82;2.65;;;9.00;93.30;;;;;;5060036;28;20081;-82
2023/04/30 05:20:33;;;;;;;4.78;2.42;;;9.10;93.40;;;;;;5037924;28;20064;-84
2023/04/30 05:22:59;;;;;;;6.40;2.83;;;9.10;93.50;;;;;;5036423;28;20051;-82
2023/04/30 05:25:25;;;;;;;4.78;2.80;;;9.10;93.50;;;;;;5061422;28;20020;-84
2023/04/30 05:27:51;;;;;;;4.68;2.45;;;9.20;93.60;;;;;;5052605;28;20924;-81
2023/04/30 05:30:17;;;;;;;4.97;2.80;;;9.20;93.70;;;;;;5052895;28;20085;-83
2023/04/30 05:32:48;;;;;;;4.53;2.80;;;9.30;93.80;;;;;;5057081;28;20521;-82
2023/04/30 05:35:13;;;;;;;5.53;2.75;;;9.30;93.80;;;;;;5055892;28;20021;-82
2023/04/30 05:37:39;;;;;;;4.82;2.90;;;9.30;93.90;;;;;;5053289;28;20127;-81
2023/04/30 05:40:06;;;;;;;5.63;2.90;;;9.40;94.00;;;;;;5020977;28;20051;-81
2023/04/30 05:42:31;;;;;;;5.68;3.00;;;9.50;94.10;;;;;;5031982;28;20032;-83
2023/04/30 05:44:57;;;;;;;6.10;3.03;;;9.50;94.10;;;;;;5050714;28;20039;-80
2023/04/30 05:47:22;;;;;;;4.80;2.72;;;9.60;94.20;;;;;;5038023;28;20077;-83
2023/04/30 05:49:48;;;;;;;5.60;3.03;;;9.60;94.30;;;;;;5036208;28;20234;-82
2023/04/30 05:52:16;;;;;;;5.25;3.33;;;9.70;94.30;;;;;;5061300;28;20599;-82
2023/04/30 05:54:42;;;;;;;6.33;3.37;;;9.80;94.50;;;;;;5030392;28;20802;-83
2023/04/30 05:57:08;;;;;;;5.70;3.08;;;9.80;94.50;;;;;;5060809;28;20016;-83
2023/04/30 05:59:34;;;;;;;6.30;3.85;;;9.90;94.60;;;;;;5036775;28;20035;-83
2023/04/30 06:02:00;;;;;;;6.13;3.33;;;10.00;94.70;;;;;;5063012;28;20099;-82
2023/04/30 06:04:26;;;;;;;7.00;3.70;;;10.10;94.80;;;;;;5055052;28;20039;-83
2023/04/30 06:06:51;;;;;;;6.55;4.00;;;10.10;94.80;;;;;;5071908;28;20028;-81
2023/04/30 06:09:17;;;;;;;6.37;3.80;;;10.20;94.90;;;;;;5057866;28;20028;-83
2023/04/30 06:11:49;;;;;;;8.00;3.97;;;10.30;95.10;;;;;;5031390;28;20032;-83
2023/04/30 06:14:15;;;;;;;6.28;3.63;;;10.40;95.30;;;;;;5052771;28;20052;-82
2023/04/30 06:16:42;;;;;;;7.00;4.07;;;10.60;95.50;;;;;;5044276;28;20263;-81
2023/04/30 06:19:08;;;;;;;6.60;4.10;;;10.70;95.90;;;;;;5057908;28;20067;-82
2023/04/30 06:21:33;;;;;;;6.43;3.72;;;10.80;96.00;;;;;;5054456;28;20404;-83
2023/04/30 06:23:59;;;;;;;5.93;3.77;;;11.00;95.70;;;;;;5054907;28;20488;-81
2023/04/30 06:26:25;;;;;;;8.07;4.80;;;11.10;95.70;;;;;;5018321;28;20466;-82
2023/04/30 06:28:50;;;;;;;7.93;4.47;;;11.30;95.60;;;;;;5032054;28;20155;-82
2023/04/30 06:31:16;;;;;;;7.00;4.53;;;11.40;95.60;;;;;;5047209;28;20079;-83
2023/04/30 06:33:42;;;;;;;8.27;4.40;;;11.50;95.60;;;;;;5057600;28;20160;-80
2023/04/30 06:36:08;;;;;;;7.93;4.68;;;11.50;95.60;;;;;;5058670;28;20032;-83
2023/04/30 06:38:34;;;;;;;7.65;4.97;;;11.60;95.60;;;;;;5055164;28;20027;-84
2023/04/30 06:40:59;;;;;;;8.20;4.90;;;11.70;95.60;;;;;;5054108;28;20040;-83
2023/04/30 06:43:25;;;;;;;8.60;5.32;;;11.80;95.70;;;;;;5031842;28;20040;-81
2023/04/30 06:45:51;;;;;;;7.93;4.67;;;11.90;95.70;;;;;;5037393;28;20191;-83
2023/04/30 06:48:16;;;;;;;8.13;4.73;;;12.00;95.70;;;;;;5043289;28;20028;-82
2023/04/30 06:50:45;;;;;;;7.43;4.80;;;12.10;95.80;;;;;;5053742;28;20258;-81
2023/04/30 06:53:11;;;;;;;8.45;4.85;;;12.20;95.80;;;;;;5030192;28;20069;-82
2023/04/30 06:55:37;;;;;;;7.40;4.60;;;12.30;95.80;;;;;;5058188;28;20322;-83
2023/04/30 06:58:04;;;;;;;7.40;4.55;;;12.40;95.90;;;;;;5036894;28;20143;-82
2023/04/30 07:00:31;;;;;;;8.00;4.68;;;12.50;96.00;;;;;;5047503;28;20021;-81
2023/04/30 07:02:59;;;;;;;7.53;4.93;;;12.60;96.10;;;;;;5045106;28;20024;-81
2023/04/30 07:05:25;;;;;;;7.25;4.82;;;12.70;96.20;;;;;;5051407;28;20025;-81
2023/04/30 07:07:51;;;;;;;8.60;5.23;;;12.90;96.30;;;;;;5055566;28;20032;-81
2023/04/30 07:10:17;;;;;;;7.55;4.90;;;13.00;96.30;;;;;;5054156;28;20025;-83
2023/04/30 07:12:44;;;;;;;7.25;4.85;;;13.20;96.30;;;;;;5035485;28;20261;-82
2023/04/30 07:15:10;;;;;;;9.13;5.30;;;13.30;96.20;;;;;;5059745;28;20638;-82
2023/04/30 07:17:37;;;;;;;7.67;5.37;;;13.50;96.20;;;;;;5040359;28;20943;-83
2023/04/30 07:20:04;;;;;;;9.50;5.47;;;13.60;96.20;;;;;;5054832;28;20474;-82
2023/04/30 07:22:30;;;;;;;10.02;6.47;;;13.70;96.30;;;;;;5049960;28;20445;-82
2023/04/30 07:24:56;;;;;;;8.85;5.47;;;13.90;96.40;;;;;;5039516;28;20481;-81
2023/04/30 07:27:22;;;;;;;8.43;5.43;;;14.00;96.50;;;;;;5016712;28;20020;-83
2023/04/30 07:29:48;;;;;;;9.67;5.87;;;14.20;96.60;;;;;;5038177;28;20016;-81
2023/04/30 07:32:15;;;;;;;8.55;5.43;;;14.30;96.60;;;;;;5047382;28;20142;-83
2023/04/30 07:34:41;;;;;;;9.48;5.63;;;14.50;96.50;;;;;;5019278;28;20036;-81
2023/04/30 07:37:08;;;;;;;9.70;6.27;;;14.60;96.40;;;;;;5049175;28;20033;-83
2023/04/30 07:39:35;;;;;;;10.82;6.43;;;14.80;96.40;;;;;;5053742;28;20332;-82
2023/04/30 07:42:01;;;;;;;8.73;6.10;;;14.90;96.30;;;;;;5040097;28;20066;-82
2023/04/30 07:44:27;;;;;;;8.48;5.88;;;15.00;96.30;;;;;;5012061;28;20173;-83
2023/04/30 07:46:53;;;;;;;9.50;6.03;;;15.20;96.50;;;;;;5047804;28;20025;-82
2023/04/30 07:49:19;;;;;;;10.77;6.43;;;15.30;96.80;;;;;;5042278;28;20029;-83
2023/04/30 07:51:45;;;;;;;8.90;5.87;;;15.50;97.10;;;;;;5055312;28;20039;-81
2023/04/30 07:54:11;;;;;;;7.80;5.25;;;15.70;97.20;;;;;;5037548;28;20784;-82
2023/04/30 07:56:37;;;;;;;8.65;5.78;;;16.00;97.40;;;;;;5054403;28;20350;-83
2023/04/30 07:59:03;;;;;;;8.50;5.90;;;16.20;97.30;;;;;;5036501;28;20473;-85
2023/04/30 08:01:29;;;;;;;9.87;6.10;;;16.40;97.60;;;;;;5046422;28;22515;-85
2023/04/30 08:03:55;;;;;;;8.88;6.05;;;16.70;98.00;;;;;;5053600;28;20450;-82
2023/04/30 08:06:21;;;;;;;10.47;7.03;;;17.00;98.00;;;;;;5042323;28;20045;-82
2023/04/30 08:08:47;;;;;;;9.07;6.43;;;17.30;98.00;;;;;;5054104;28;20406;-83
2023/04/30 08:11:14;;;;;;;8.60;6.13;;;17.60;98.00;;;;;;5049616;28;20090;-83
2023/04/30 08:13:40;;;;;;;9.35;6.53;;;17.90;98.10;;;;;;5053897;28;20560;-83
2023/04/30 08:16:06;;;;;;;9.50;6.33;;;18.20;98.10;;;;;;5034464;28;20505;-83
2023/04/30 08:18:32;;;;;;;9.82;6.28;;;18.50;97.90;;;;;;5042628;28;20101;-84
2023/04/30 08:20:59;;;;;;;9.50;5.80;;;18.70;97.80;;;;;;5044319;28;20074;-82
2023/04/30 08:23:25;;;;;;;8.25;5.75;;;19.00;97.80;;;;;;5056270;28;20028;-80
2023/04/30 08:25:51;;;;;;;9.00;5.73;;;19.40;98.20;;;;;;5042110;28;20028;-82
2023/04/30 08:28:17;;;;;;;7.75;5.30;;;19.70;98.60;;;;;;5056209;28;20032;-82
2023/04/30 08:30:43;;;;;;;8.07;5.90;;;20.10;98.90;;;;;;5035554;28;20154;-81
2023/04/30 08:33:09;;;;;;;8.03;5.53;;;20.60;98.80;;;;;;5056202;28;20043;-83
2023/04/30 08:35:35;;;;;;;6.70;5.18;;;21.10;98.40;;;;;;5046074;28;20147;-82
2023/04/30 08:38:01;;;;;;;6.35;5.07;;;21.50;98.10;;;;;;5059827;28;20028;-83
2023/04/30 08:40:27;;;;;;;5.80;4.50;;;21.90;97.90;;;;;;5055924;28;20138;-83
2023/04/30 08:43:04;;;;;;;6.22;5.03;;;22.30;97.70;;;;;;5061842;28;20032;-82
2023/04/30 08:45:34;;;;;;;5.82;4.60;;;22.70;95.60;;;;;;5049541;28;20033;-83
2023/04/30 08:48:03;;;;;;;5.72;4.32;;;23.10;96.40;;;;;;5025828;28;20032;-83
2023/04/30 08:50:29;;;;;;;5.40;4.43;;;23.50;97.10;;;;;;5057448;28;20024;-82
2023/04/30 08:52:57;;;;;;;5.20;4.50;;;23.90;96.40;;;;;;5044977;28;20063;-83
2023/04/30 08:55:25;;;;;;;6.93;5.25;;;24.30;95.50;;;;;;5056897;28;20045;-83
2023/04/30 08:57:51;;;;;;;6.28;4.28;;;24.50;95.00;;;;;;5050099;28;20497;-83
2023/04/30 09:00:17;;;;;;;6.20;4.77;;;24.80;95.40;;;;;;5057157;28;20051;-83
2023/04/30 09:02:44;;;;;;;7.03;5.30;;;25.00;94.90;;;;;;5037138;28;20439;-83
2023/04/30 09:05:14;;;;;;;4.80;3.97;;;25.30;94.40;;;;;;5052268;28;20116;-82
2023/04/30 09:07:42;;;;;;;4.82;4.03;;;25.40;93.00;;;;;;5048521;28;20669;-83
2023/04/30 09:10:17;;;;;;;5.17;4.17;;;25.70;94.10;;;;;;5055176;28;20498;-83
2023/04/30 09:12:57;;;;;;;4.70;3.53;;;25.90;92.00;;;;;;5041731;28;21521;-83
2023/04/30 09:15:22;;;;;;;5.10;4.03;;;26.20;94.40;;;;;;5057911;28;20025;-81
2023/04/30 09:17:48;;;;;;;4.70;3.75;;;26.40;94.30;;;;;;5033268;28;20028;-83
2023/04/30 09:20:14;;;;;;;5.17;3.97;;;26.70;93.90;;;;;;5030937;28;20431;-83
2023/04/30 09:22:41;;;;;;;4.87;3.70;;;26.90;93.50;;;;;;5044242;28;20028;-82
2023/04/30 09:25:08;;;;;;;4.07;3.58;;;27.10;92.80;;;;;;5054248;28;20748;-82
2023/04/30 09:27:34;;;;;;;4.13;3.28;;;27.30;93.20;;;;;;5058620;28;20060;-83
2023/04/30 09:30:00;;;;;;;5.88;3.78;;;27.50;93.30;;;;;;5054292;28;20063;-82
2023/04/30 09:32:26;;;;;;;3.60;3.20;;;27.80;93.10;;;;;;5034360;28;20053;-81
2023/04/30 09:34:51;;;;;;;4.07;3.22;;;27.90;91.90;;;;;;5051308;28;20036;-83
2023/04/30 09:37:17;;;;;;;4.30;3.83;;;28.10;91.80;;;;;;5059949;28;20876;-83
2023/04/30 09:39:53;;;;;;;4.70;3.70;;;28.20;91.50;;;;;;5044710;28;20320;-83
2023/04/30 09:42:19;;;;;;;4.00;3.17;;;28.30;87.70;;;;;;5056497;28;20154;-82
2023/04/30 09:44:46;;;;;;;3.75;3.25;;;28.40;90.80;;;;;;5059243;28;20044;-83
2023/04/30 09:47:18;;;;;;;3.90;3.25;;;28.50;90.60;;;;;;5055934;28;20039;-86
2023/04/30 09:49:50;;;;;;;4.27;3.37;;;28.60;89.80;;;;;;5032883;28;20024;-84
2023/04/30 09:52:16;;;;;;;4.80;3.17;;;28.80;87.50;;;;;;5052048;28;20382;-83
2023/04/30 09:54:44;;;;;;;4.00;3.22;;;28.80;89.50;;;;;;5044661;28;20442;-82
2023/04/30 09:57:12;;;;;;;3.70;3.05;;;29.00;88.50;;;;;;5054582;28;20327;-81
2023/04/30 09:59:42;;;;;;;4.10;2.65;;;29.00;87.60;;;;;;5040615;28;20134;-82
2023/04/30 10:02:08;;;;;;;3.70;3.00;;;29.20;86.70;;;;;;5055982;28;20308;-82
2023/04/30 10:04:35;;;;;;;4.85;3.33;;;29.30;86.60;;;;;;5035742;28;20626;-85
2023/04/30 10:07:19;;;;;;;3.70;3.03;;;29.40;83.30;;;;;;5045779;28;20033;-82
2023/04/30 10:10:06;;;;;;;4.70;3.28;;;29.50;78.10;;;;;;5026128;28;20028;-83
2023/04/30 10:12:43;;;;;;;4.05;3.33;;;29.50;78.80;;;;;;5056487;28;20029;-82
2023/04/30 10:15:23;;;;;;;5.13;2.87;;;29.60;78.80;;;;;;5052643;28;20498;-82
2023/04/30 10:18:16;;;;;;;3.75;2.83;;;29.60;80.70;;;;;;5056216;28;20052;-83
2023/04/30 10:20:46;;;;;;;3.22;2.88;;;29.80;75.80;;;;;;5034420;28;20021;-83
2023/04/30 10:23:13;;;;;;;3.53;2.53;;;30.00;80.10;;;;;;5050150;28;20150;-82
2023/04/30 10:25:40;;;;;;;3.05;2.75;;;30.10;80.80;;;;;;5046850;28;20025;-83
2023/04/30 10:28:10;;;;;;;3.40;2.53;;;30.20;79.00;;;;;;5055136;28;20413;-84
2023/04/30 10:30:36;;;;;;;3.50;3.05;;;30.20;75.90;;;;;;5041281;28;20049;-83
2023/04/30 10:33:13;;;;;;;3.08;2.47;;;30.30;77.60;;;;;;5042975;28;20398;-85
2023/04/30 10:36:04;;;;;;;2.97;2.47;;;30.20;72.50;;;;;;5032786;28;20054;-82
2023/04/30 10:38:31;;;;;;;3.53;2.53;;;30.20;73.40;;;;;;5055364;28;20119;-81
2023/04/30 10:41:01;;;;;;;3.75;2.45;;;30.10;74.50;;;;;;5056366;28;20089;-82
2023/04/30 10:43:29;;;;;;;2.85;2.47;;;30.10;72.20;;;;;;5055994;28;20035;-82
2023/04/30 10:45:58;;;;;;;2.92;2.30;;;30.20;73.60;;;;;;5046849;28;20063;-82
2023/04/30 10:48:25;;;;;;;2.88;2.55;;;30.30;72.80;;;;;;5045457;28;20040;-84
2023/04/30 10:50:54;;;;;;;2.57;2.20;;;30.40;74.00;;;;;;5018766;28;20337;-81
2023/04/30 10:53:21;;;;;;;3.13;2.50;;;30.50;72.90;;;;;;5042719;28;20024;-83
2023/04/30 10:55:57;;;;;;;2.75;2.17;;;30.60;72.00;;;;;;5049137;28;20405;-83
2023/04/30 10:58:23;;;;;;;2.63;2.30;;;30.70;71.10;;;;;;5037194;28;20059;-83
2023/04/30 11:01:03;;;;;;;2.67;2.40;;;30.80;72.00;;;;;;5046569;28;20060;-83
2023/04/30 11:03:31;;;;;;;2.90;2.47;;;30.90;66.00;;;;;;5052898;28;20055;-84
2023/04/30 11:06:02;;;;;;;2.20;2.00;;;31.00;70.20;;;;;;5045886;28;20056;-82
2023/04/30 11:08:46;;;;;;;2.20;1.83;;;31.00;68.30;;;;;;5042637;28;20558;-83
2023/04/30 11:11:19;;;;;;;2.53;1.70;;;30.90;61.40;;;;;;5053841;28;20036;-81
2023/04/30 11:13:56;;;;;;;2.20;1.83;;;30.80;62.30;;;;;;5053508;28;20051;-82
2023/04/30 11:16:33;;;;;;;2.13;1.90;;;30.60;64.80;;;;;;5053568;28;20048;-84
2023/04/30 11:19:08;;;;;;;1.40;1.23;;;30.60;62.60;;;;;;5056520;28;20048;-83
2023/04/30 11:21:38;;;;;;;3.15;1.70;;;30.60;61.60;;;;;;5024928;28;20020;-82
2023/04/30 11:24:05;;;;;;;2.63;1.60;;;30.60;64.20;;;;;;5053477;28;20051;-82
2023/04/30 11:27:04;;;;;;;2.03;1.77;;;30.50;62.50;;;;;;5042021;28;20479;-84
2023/04/30 11:29:31;;;;;;;2.50;2.00;;;30.40;60.00;;;;;;5043529;28;20032;-83
2023/04/30 11:32:00;;;;;;;2.50;2.05;;;30.30;61.70;;;;;;5057756;28;20088;-82
2023/04/30 11:34:25;;;;;;;1.92;1.77;;;30.30;61.40;;;;;;5053885;28;20024;-83
2023/04/30 11:36:57;;;;;;;2.17;1.93;;;30.30;63.60;;;;;;5027065;28;20545;-82
2023/04/30 11:39:25;;;;;;;2.20;1.90;;;30.30;62.50;;;;;;5054812;28;20446;-83
2023/04/30 11:41:51;;;;;;;2.72;1.90;;;30.50;63.80;;;;;;5051090;28;20730;-83
2023/04/30 11:44:27;;;;;;;2.75;1.95;;;30.60;63.00;;;;;;5047104;28;20039;-83
2023/04/30 11:46:53;;;;;;;2.05;1.60;;;30.60;59.50;;;;;;5053934;28;20237;-83
2023/04/30 11:49:22;;;;;;;1.60;1.40;;;30.40;59.60;;;;;;5041999;28;20081;-83
2023/04/30 11:51:49;;;;;;;2.90;1.73;;;30.20;57.70;;;;;;5030499;28;20223;-82
2023/04/30 11:54:15;;;;;;;3.03;1.60;;;30.10;59.10;;;;;;5044722;28;20082;-81
2023/04/30 11:56:48;;;;;;;1.90;1.40;;;30.10;60.30;;;;;;5020232;28;20517;-81
2023/04/30 11:59:16;;;;;;;1.48;1.38;;;30.10;57.20;;;;;;5042108;28;20714;-82
2023/04/30 12:01:42;;;;;;;1.67;1.43;;;30.10;59.80;;;;;;5023898;28;20113;-82
2023/04/30 12:04:08;;;;;;;1.77;1.27;;;30.30;61.20;;;;;;5054338;28;20074;-83
2023/04/30 12:06:35;;;;;;;1.85;1.70;;;30.40;61.40;;;;;;5034678;28;20028;-84
2023/04/30 12:09:05;;;;;;;1.83;1.63;;;30.50;59.60;;;;;;5043875;28;20051;-83
2023/04/30 12:11:33;;;;;;;1.70;1.37;;;30.60;58.80;;;;;;5033878;28;20123;-83
2023/04/30 12:14:10;;;;;;;1.40;1.30;;;30.70;59.10;;;;;;5041160;28;20048;-82
2023/04/30 12:16:49;;;;;;;1.40;1.30;;;30.80;57.50;;;;;;5056566;28;20025;-83
2023/04/30 12:19:20;;;;;;;1.40;1.10;;;30.90;57.90;;;;;;5034228;28;20035;-86
2023/04/30 12:21:47;;;;;;;2.03;1.40;;;31.10;57.50;;;;;;5032422;28;20301;-82
2023/04/30 12:24:15;;;;;;;1.83;1.30;;;31.10;57.20;;;;;;5046897;28;20032;-82
2023/04/30 12:26:41;;;;;;;1.45;1.20;;;30.90;56.10;;;;;;5051076;28;20299;-82
2023/04/30 12:29:09;;;;;;;1.30;1.20;;;30.80;56.30;;;;;;5055211;28;20040;-81
2023/04/30 12:31:39;;;;;;;1.60;1.27;;;30.70;56.10;;;;;;5051543;28;20086;-83
2023/04/30 12:34:06;;;;;;;2.05;1.30;;;30.70;55.00;;;;;;5056714;28;20064;-81
2023/04/30 12:36:35;;;;;;;1.60;1.50;;;30.70;56.10;;;;;;5033744;28;20036;-82
2023/04/30 12:39:12;;;;;;;1.88;1.30;;;30.70;55.70;;;;;;5027722;28;20048;-83
2023/04/30 12:41:46;;;;;;;1.27;1.17;;;30.70;53.60;;;;;;5049779;28;20154;-84
2023/04/30 12:44:23;;;;;;;1.27;1.10;;;30.80;53.60;;;;;;5021384;28;20037;-83
2023/04/30 12:46:54;;;;;;;1.63;1.30;;;30.90;52.50;;;;;;5038038;28;20536;-81
2023/04/30 12:49:33;;;;;;;1.30;1.20;;;30.90;54.20;;;;;;5050581;28;20291;-82
2023/04/30 12:52:08;;;;;;;1.90;1.50;;;30.90;52.40;;;;;;5030559;28;20029;-83
2023/04/30 12:54:36;;;;;;;1.50;1.27;;;30.90;51.90;;;;;;5047086;28;20089;-82
2023/04/30 12:57:07;;;;;;;1.38;1.10;;;30.80;53.60;;;;;;5053996;28;20063;-83